sensor_id;sensor_type;location;lat;lon;timestamp;P1;durP1;ratioP1;P2;durP2;ratioP2
12950;SDS011;6540;50.858;7.232;2023-06-14T00:00:45;1.77;;;1.67;;
12950;SDS011;6540;50.858;7.232;2023-06-14T00:03:12;1.93;;;1.73;;
12950;SDS011;6540;50.858;7.232;2023-06-14T00:05:42;1.60;;;1.50;;
12950;SDS011;6540;50.858;7.232;2023-06-14T00:08:08;2.07;;;1.97;;
12950;SDS011;6540;50.858;7.232;2023-06-14T00:10:38;2.73;;;1.97;;
12950;SDS011;6540;50.858;7.232;2023-06-14T00:13:05;2.30;;;2.10;;
12950;SDS011;6540;50.858;7.232;2023-06-14T00:15:32;3.53;;;1.53;;
12950;SDS011;6540;50.858;7.232;2023-06-14T00:17:58;1.57;;;1.30;;
12950;SDS011;6540;50.858;7.232;2023-06-14T00:20:27;2.17;;;1.80;;
12950;SDS011;6540;50.858;7.232;2023-06-14T00:22:54;2.10;;;1.97;;
12950;SDS011;6540;50.858;7.232;2023-06-14T00:25:21;1.73;;;1.63;;
12950;SDS011;6540;50.858;7.232;2023-06-14T00:27:48;2.13;;;2.03;;
12950;SDS011;6540;50.858;7.232;2023-06-14T00:30:14;1.20;;;1.20;;
12950;SDS011;6540;50.858;7.232;2023-06-14T00:32:39;2.03;;;1.93;;
12950;SDS011;6540;50.858;7.232;2023-06-14T00:35:05;2.17;;;1.97;;
12950;SDS011;6540;50.858;7.232;2023-06-14T00:37:32;2.50;;;2.30;;
12950;SDS011;6540;50.858;7.232;2023-06-14T00:39:58;1.83;;;1.73;;
12950;SDS011;6540;50.858;7.232;2023-06-14T00:42:24;1.93;;;1.57;;
12950;SDS011;6540;50.858;7.232;2023-06-14T00:44:50;1.80;;;1.70;;
12950;SDS011;6540;50.858;7.232;2023-06-14T00:47:15;1.70;;;1.60;;
12950;SDS011;6540;50.858;7.232;2023-06-14T00:49:41;1.87;;;1.77;;
12950;SDS011;6540;50.858;7.232;2023-06-14T00:52:06;1.97;;;1.87;;
12950;SDS011;6540;50.858;7.232;2023-06-14T00:54:32;1.87;;;1.77;;
12950;SDS011;6540;50.858;7.232;2023-06-14T00:56:57;3.07;;;2.17;;
12950;SDS011;6540;50.858;7.232;2023-06-14T00:59:23;1.57;;;1.47;;
12950;SDS011;6540;50.858;7.232;2023-06-14T01:01:48;1.90;;;1.80;;
12950;SDS011;6540;50.858;7.232;2023-06-14T01:04:14;2.63;;;1.63;;
12950;SDS011;6540;50.858;7.232;2023-06-14T01:09:12;1.97;;;1.43;;
12950;SDS011;6540;50.858;7.232;2023-06-14T01:12:02;1.73;;;1.63;;
12950;SDS011;6540;50.858;7.232;2023-06-14T01:14:42;1.60;;;1.50;;
12950;SDS011;6540;50.858;7.232;2023-06-14T01:17:08;3.47;;;2.03;;
12950;SDS011;6540;50.858;7.232;2023-06-14T01:19:42;2.90;;;1.30;;
12950;SDS011;6540;50.858;7.232;2023-06-14T01:22:09;1.73;;;1.63;;
12950;SDS011;6540;50.858;7.232;2023-06-14T01:24:35;2.00;;;1.90;;
12950;SDS011;6540;50.858;7.232;2023-06-14T01:27:00;1.23;;;1.23;;
12950;SDS011;6540;50.858;7.232;2023-06-14T01:29:27;1.70;;;1.57;;
12950;SDS011;6540;50.858;7.232;2023-06-14T01:31:57;1.73;;;1.63;;
12950;SDS011;6540;50.858;7.232;2023-06-14T01:34:24;1.73;;;1.63;;
12950;SDS011;6540;50.858;7.232;2023-06-14T01:36:49;3.50;;;2.17;;
12950;SDS011;6540;50.858;7.232;2023-06-14T01:39:15;1.67;;;1.57;;
12950;SDS011;6540;50.858;7.232;2023-06-14T01:41:42;2.23;;;2.13;;
12950;SDS011;6540;50.858;7.232;2023-06-14T01:44:09;1.83;;;1.73;;
12950;SDS011;6540;50.858;7.232;2023-06-14T01:46:35;1.93;;;1.83;;
12950;SDS011;6540;50.858;7.232;2023-06-14T01:49:01;1.53;;;1.43;;
12950;SDS011;6540;50.858;7.232;2023-06-14T01:51:27;1.93;;;1.80;;
12950;SDS011;6540;50.858;7.232;2023-06-14T01:53:52;2.80;;;1.97;;
12950;SDS011;6540;50.858;7.232;2023-06-14T01:56:18;1.90;;;1.80;;
12950;SDS011;6540;50.858;7.232;2023-06-14T01:58:43;3.30;;;2.50;;
12950;SDS011;6540;50.858;7.232;2023-06-14T02:01:08;1.93;;;1.83;;
12950;SDS011;6540;50.858;7.232;2023-06-14T02:03:34;1.50;;;1.50;;
12950;SDS011;6540;50.858;7.232;2023-06-14T02:05:59;1.93;;;1.77;;
12950;SDS011;6540;50.858;7.232;2023-06-14T02:08:25;2.00;;;1.87;;
12950;SDS011;6540;50.858;7.232;2023-06-14T02:10:51;2.13;;;2.03;;
12950;SDS011;6540;50.858;7.232;2023-06-14T02:13:16;1.80;;;1.70;;
12950;SDS011;6540;50.858;7.232;2023-06-14T02:15:42;3.33;;;3.03;;
12950;SDS011;6540;50.858;7.232;2023-06-14T02:18:09;1.33;;;1.33;;
12950;SDS011;6540;50.858;7.232;2023-06-14T02:20:35;2.70;;;2.50;;
12950;SDS011;6540;50.858;7.232;2023-06-14T02:23:00;1.93;;;1.80;;
12950;SDS011;6540;50.858;7.232;2023-06-14T02:25:26;1.70;;;1.60;;
12950;SDS011;6540;50.858;7.232;2023-06-14T02:27:53;1.47;;;1.47;;
12950;SDS011;6540;50.858;7.232;2023-06-14T02:30:20;2.13;;;1.93;;
12950;SDS011;6540;50.858;7.232;2023-06-14T02:32:45;1.77;;;1.67;;
12950;SDS011;6540;50.858;7.232;2023-06-14T02:35:11;1.83;;;1.73;;
12950;SDS011;6540;50.858;7.232;2023-06-14T02:37:38;1.80;;;1.70;;
12950;SDS011;6540;50.858;7.232;2023-06-14T02:40:04;2.07;;;1.97;;
12950;SDS011;6540;50.858;7.232;2023-06-14T02:42:30;1.67;;;1.57;;
12950;SDS011;6540;50.858;7.232;2023-06-14T02:44:56;2.37;;;2.17;;
12950;SDS011;6540;50.858;7.232;2023-06-14T02:47:21;2.10;;;2.00;;
12950;SDS011;6540;50.858;7.232;2023-06-14T02:49:46;1.70;;;1.60;;
12950;SDS011;6540;50.858;7.232;2023-06-14T02:52:12;1.57;;;1.47;;
12950;SDS011;6540;50.858;7.232;2023-06-14T02:54:37;1.57;;;1.47;;
12950;SDS011;6540;50.858;7.232;2023-06-14T02:57:03;1.57;;;1.47;;
12950;SDS011;6540;50.858;7.232;2023-06-14T02:59:28;1.90;;;1.80;;
12950;SDS011;6540;50.858;7.232;2023-06-14T03:01:53;1.50;;;1.40;;
12950;SDS011;6540;50.858;7.232;2023-06-14T03:04:19;1.80;;;1.70;;
12950;SDS011;6540;50.858;7.232;2023-06-14T03:06:45;3.13;;;1.37;;
12950;SDS011;6540;50.858;7.232;2023-06-14T03:09:15;1.60;;;1.50;;
12950;SDS011;6540;50.858;7.232;2023-06-14T03:11:41;1.77;;;1.67;;
12950;SDS011;6540;50.858;7.232;2023-06-14T03:14:06;1.93;;;1.80;;
12950;SDS011;6540;50.858;7.232;2023-06-14T03:16:33;3.00;;;2.10;;
12950;SDS011;6540;50.858;7.232;2023-06-14T03:18:58;1.70;;;1.60;;
12950;SDS011;6540;50.858;7.232;2023-06-14T03:21:24;1.87;;;1.53;;
12950;SDS011;6540;50.858;7.232;2023-06-14T03:23:50;1.37;;;1.37;;
12950;SDS011;6540;50.858;7.232;2023-06-14T03:26:18;8.20;;;2.13;;
12950;SDS011;6540;50.858;7.232;2023-06-14T03:28:46;2.57;;;2.37;;
12950;SDS011;6540;50.858;7.232;2023-06-14T03:31:12;2.10;;;1.87;;
12950;SDS011;6540;50.858;7.232;2023-06-14T03:33:38;1.97;;;1.83;;
12950;SDS011;6540;50.858;7.232;2023-06-14T03:36:04;1.53;;;1.43;;
12950;SDS011;6540;50.858;7.232;2023-06-14T03:38:30;2.20;;;2.00;;
12950;SDS011;6540;50.858;7.232;2023-06-14T03:40:56;2.20;;;2.10;;
12950;SDS011;6540;50.858;7.232;2023-06-14T03:43:21;3.90;;;2.17;;
12950;SDS011;6540;50.858;7.232;2023-06-14T03:45:46;1.97;;;1.87;;
12950;SDS011;6540;50.858;7.232;2023-06-14T03:48:12;2.60;;;2.43;;
12950;SDS011;6540;50.858;7.232;2023-06-14T03:50:37;1.97;;;1.87;;
12950;SDS011;6540;50.858;7.232;2023-06-14T03:53:03;1.63;;;1.40;;
12950;SDS011;6540;50.858;7.232;2023-06-14T03:55:29;0.93;;;0.93;;
12950;SDS011;6540;50.858;7.232;2023-06-14T03:57:56;1.37;;;1.27;;
12950;SDS011;6540;50.858;7.232;2023-06-14T04:00:22;1.70;;;1.60;;
12950;SDS011;6540;50.858;7.232;2023-06-14T04:02:47;2.33;;;2.13;;
12950;SDS011;6540;50.858;7.232;2023-06-14T04:05:13;2.43;;;2.23;;
12950;SDS011;6540;50.858;7.232;2023-06-14T04:07:38;2.00;;;1.90;;
12950;SDS011;6540;50.858;7.232;2023-06-14T04:10:10;1.47;;;1.40;;
12950;SDS011;6540;50.858;7.232;2023-06-14T04:12:36;1.63;;;1.53;;
12950;SDS011;6540;50.858;7.232;2023-06-14T04:15:01;1.27;;;1.27;;
12950;SDS011;6540;50.858;7.232;2023-06-14T04:17:27;1.90;;;1.80;;
12950;SDS011;6540;50.858;7.232;2023-06-14T04:19:53;1.57;;;1.47;;
12950;SDS011;6540;50.858;7.232;2023-06-14T04:22:18;1.40;;;1.33;;
12950;SDS011;6540;50.858;7.232;2023-06-14T04:24:44;2.23;;;2.03;;
12950;SDS011;6540;50.858;7.232;2023-06-14T04:27:10;2.60;;;2.10;;
12950;SDS011;6540;50.858;7.232;2023-06-14T04:29:35;1.10;;;1.10;;
12950;SDS011;6540;50.858;7.232;2023-06-14T04:32:01;2.57;;;2.33;;
12950;SDS011;6540;50.858;7.232;2023-06-14T04:34:26;1.63;;;1.53;;
12950;SDS011;6540;50.858;7.232;2023-06-14T04:36:55;1.60;;;1.50;;
12950;SDS011;6540;50.858;7.232;2023-06-14T04:39:21;1.83;;;1.57;;
12950;SDS011;6540;50.858;7.232;2023-06-14T04:41:47;1.70;;;1.60;;
12950;SDS011;6540;50.858;7.232;2023-06-14T04:44:16;2.07;;;1.73;;
12950;SDS011;6540;50.858;7.232;2023-06-14T04:46:43;1.57;;;1.47;;
12950;SDS011;6540;50.858;7.232;2023-06-14T04:49:14;1.70;;;1.60;;
12950;SDS011;6540;50.858;7.232;2023-06-14T04:51:43;2.00;;;1.67;;
12950;SDS011;6540;50.858;7.232;2023-06-14T04:54:12;1.70;;;1.60;;
12950;SDS011;6540;50.858;7.232;2023-06-14T04:56:41;1.93;;;1.63;;
12950;SDS011;6540;50.858;7.232;2023-06-14T04:59:13;2.43;;;2.23;;
12950;SDS011;6540;50.858;7.232;2023-06-14T05:01:39;1.70;;;1.60;;
12950;SDS011;6540;50.858;7.232;2023-06-14T05:04:05;2.33;;;1.63;;
12950;SDS011;6540;50.858;7.232;2023-06-14T05:06:31;1.67;;;1.30;;
12950;SDS011;6540;50.858;7.232;2023-06-14T05:08:56;2.60;;;1.80;;
12950;SDS011;6540;50.858;7.232;2023-06-14T05:11:21;1.90;;;1.80;;
12950;SDS011;6540;50.858;7.232;2023-06-14T05:13:49;3.57;;;2.20;;
12950;SDS011;6540;50.858;7.232;2023-06-14T05:16:14;2.67;;;2.30;;
12950;SDS011;6540;50.858;7.232;2023-06-14T05:18:41;2.67;;;1.70;;
12950;SDS011;6540;50.858;7.232;2023-06-14T05:21:07;2.50;;;2.30;;
12950;SDS011;6540;50.858;7.232;2023-06-14T05:23:33;2.40;;;2.17;;
12950;SDS011;6540;50.858;7.232;2023-06-14T05:25:59;2.83;;;2.10;;
12950;SDS011;6540;50.858;7.232;2023-06-14T05:28:25;2.93;;;1.70;;
12950;SDS011;6540;50.858;7.232;2023-06-14T05:30:51;1.83;;;1.73;;
12950;SDS011;6540;50.858;7.232;2023-06-14T05:33:16;2.00;;;1.80;;
12950;SDS011;6540;50.858;7.232;2023-06-14T05:35:42;1.43;;;1.33;;
12950;SDS011;6540;50.858;7.232;2023-06-14T05:38:07;1.90;;;1.80;;
12950;SDS011;6540;50.858;7.232;2023-06-14T05:40:33;1.77;;;1.67;;
12950;SDS011;6540;50.858;7.232;2023-06-14T05:42:58;1.87;;;1.77;;
12950;SDS011;6540;50.858;7.232;2023-06-14T05:45:24;1.80;;;1.70;;
12950;SDS011;6540;50.858;7.232;2023-06-14T05:47:49;2.50;;;2.20;;
12950;SDS011;6540;50.858;7.232;2023-06-14T05:50:15;1.83;;;1.70;;
12950;SDS011;6540;50.858;7.232;2023-06-14T05:52:41;1.70;;;1.60;;
12950;SDS011;6540;50.858;7.232;2023-06-14T05:55:06;2.00;;;1.80;;
12950;SDS011;6540;50.858;7.232;2023-06-14T05:57:32;2.20;;;1.97;;
12950;SDS011;6540;50.858;7.232;2023-06-14T05:59:57;1.67;;;1.57;;
12950;SDS011;6540;50.858;7.232;2023-06-14T06:02:23;1.53;;;1.43;;
12950;SDS011;6540;50.858;7.232;2023-06-14T06:04:49;1.67;;;1.57;;
12950;SDS011;6540;50.858;7.232;2023-06-14T06:07:14;1.70;;;1.60;;
12950;SDS011;6540;50.858;7.232;2023-06-14T06:09:40;1.50;;;1.40;;
12950;SDS011;6540;50.858;7.232;2023-06-14T06:12:06;1.77;;;1.37;;
12950;SDS011;6540;50.858;7.232;2023-06-14T06:14:32;1.03;;;1.03;;
12950;SDS011;6540;50.858;7.232;2023-06-14T06:16:57;1.40;;;1.30;;
12950;SDS011;6540;50.858;7.232;2023-06-14T06:19:23;1.37;;;1.17;;
12950;SDS011;6540;50.858;7.232;2023-06-14T06:21:49;1.40;;;1.30;;
12950;SDS011;6540;50.858;7.232;2023-06-14T06:24:14;1.77;;;1.40;;
12950;SDS011;6540;50.858;7.232;2023-06-14T06:26:40;1.00;;;1.00;;
12950;SDS011;6540;50.858;7.232;2023-06-14T06:29:05;1.60;;;1.50;;
12950;SDS011;6540;50.858;7.232;2023-06-14T06:31:31;1.17;;;1.17;;
12950;SDS011;6540;50.858;7.232;2023-06-14T06:33:56;1.50;;;1.33;;
12950;SDS011;6540;50.858;7.232;2023-06-14T06:36:21;1.47;;;1.37;;
12950;SDS011;6540;50.858;7.232;2023-06-14T06:38:47;2.20;;;1.80;;
12950;SDS011;6540;50.858;7.232;2023-06-14T06:41:13;1.07;;;1.07;;
12950;SDS011;6540;50.858;7.232;2023-06-14T06:43:38;2.00;;;1.70;;
12950;SDS011;6540;50.858;7.232;2023-06-14T06:46:04;0.83;;;0.83;;
12950;SDS011;6540;50.858;7.232;2023-06-14T06:48:29;1.00;;;1.00;;
12950;SDS011;6540;50.858;7.232;2023-06-14T06:50:55;1.53;;;1.43;;
12950;SDS011;6540;50.858;7.232;2023-06-14T06:53:20;1.33;;;1.23;;
12950;SDS011;6540;50.858;7.232;2023-06-14T06:55:45;1.30;;;1.20;;
12950;SDS011;6540;50.858;7.232;2023-06-14T06:58:11;1.03;;;1.03;;
12950;SDS011;6540;50.858;7.232;2023-06-14T07:00:37;1.90;;;1.75;;
12950;SDS011;6540;50.858;7.232;2023-06-14T07:03:03;1.00;;;1.00;;
12950;SDS011;6540;50.858;7.232;2023-06-14T07:05:28;1.02;;;1.02;;
12950;SDS011;6540;50.858;7.232;2023-06-14T07:07:54;0.90;;;0.90;;
12950;SDS011;6540;50.858;7.232;2023-06-14T07:10:20;1.20;;;0.90;;
12950;SDS011;6540;50.858;7.232;2023-06-14T07:12:46;0.90;;;0.90;;
12950;SDS011;6540;50.858;7.232;2023-06-14T07:15:11;0.83;;;0.83;;
12950;SDS011;6540;50.858;7.232;2023-06-14T07:17:37;1.20;;;1.20;;
12950;SDS011;6540;50.858;7.232;2023-06-14T07:20:03;2.33;;;1.00;;
12950;SDS011;6540;50.858;7.232;2023-06-14T07:22:40;1.67;;;1.10;;
12950;SDS011;6540;50.858;7.232;2023-06-14T07:25:10;1.10;;;1.10;;
12950;SDS011;6540;50.858;7.232;2023-06-14T07:27:40;0.90;;;0.90;;
12950;SDS011;6540;50.858;7.232;2023-06-14T07:30:06;0.75;;;0.70;;
12950;SDS011;6540;50.858;7.232;2023-06-14T07:32:36;0.82;;;0.80;;
12950;SDS011;6540;50.858;7.232;2023-06-14T07:35:01;0.90;;;0.85;;
12950;SDS011;6540;50.858;7.232;2023-06-14T07:37:27;0.80;;;0.70;;
12950;SDS011;6540;50.858;7.232;2023-06-14T07:39:52;0.73;;;0.73;;
12950;SDS011;6540;50.858;7.232;2023-06-14T07:42:18;1.00;;;0.93;;
12950;SDS011;6540;50.858;7.232;2023-06-14T07:44:43;0.90;;;0.90;;
12950;SDS011;6540;50.858;7.232;2023-06-14T07:47:09;1.40;;;1.30;;
12950;SDS011;6540;50.858;7.232;2023-06-14T07:49:35;0.53;;;0.53;;
12950;SDS011;6540;50.858;7.232;2023-06-14T07:52:06;0.53;;;0.53;;
12950;SDS011;6540;50.858;7.232;2023-06-14T07:54:32;0.80;;;0.80;;
12950;SDS011;6540;50.858;7.232;2023-06-14T07:56:57;0.60;;;0.60;;
12950;SDS011;6540;50.858;7.232;2023-06-14T07:59:25;0.73;;;0.73;;
12950;SDS011;6540;50.858;7.232;2023-06-14T08:01:51;0.70;;;0.70;;
12950;SDS011;6540;50.858;7.232;2023-06-14T08:04:16;0.70;;;0.70;;
12950;SDS011;6540;50.858;7.232;2023-06-14T08:06:42;1.50;;;0.63;;
12950;SDS011;6540;50.858;7.232;2023-06-14T08:09:10;0.83;;;0.80;;
12950;SDS011;6540;50.858;7.232;2023-06-14T08:11:37;0.63;;;0.63;;
12950;SDS011;6540;50.858;7.232;2023-06-14T08:14:02;0.50;;;0.50;;
12950;SDS011;6540;50.858;7.232;2023-06-14T08:16:28;0.83;;;0.83;;
12950;SDS011;6540;50.858;7.232;2023-06-14T08:18:53;0.60;;;0.50;;
12950;SDS011;6540;50.858;7.232;2023-06-14T08:21:19;0.47;;;0.47;;
12950;SDS011;6540;50.858;7.232;2023-06-14T08:23:45;0.80;;;0.80;;
12950;SDS011;6540;50.858;7.232;2023-06-14T08:26:10;1.00;;;0.70;;
12950;SDS011;6540;50.858;7.232;2023-06-14T08:28:36;0.80;;;0.80;;
12950;SDS011;6540;50.858;7.232;2023-06-14T08:31:01;0.57;;;0.57;;
12950;SDS011;6540;50.858;7.232;2023-06-14T08:33:26;1.20;;;1.10;;
12950;SDS011;6540;50.858;7.232;2023-06-14T08:35:52;1.33;;;0.77;;
12950;SDS011;6540;50.858;7.232;2023-06-14T08:38:17;0.50;;;0.50;;
12950;SDS011;6540;50.858;7.232;2023-06-14T08:40:43;0.80;;;0.80;;
12950;SDS011;6540;50.858;7.232;2023-06-14T08:43:12;1.10;;;1.00;;
12950;SDS011;6540;50.858;7.232;2023-06-14T08:45:38;0.60;;;0.60;;
12950;SDS011;6540;50.858;7.232;2023-06-14T08:48:04;0.80;;;0.80;;
12950;SDS011;6540;50.858;7.232;2023-06-14T08:50:31;0.60;;;0.60;;
12950;SDS011;6540;50.858;7.232;2023-06-14T08:52:57;0.87;;;0.80;;
12950;SDS011;6540;50.858;7.232;2023-06-14T08:55:27;0.50;;;0.50;;
12950;SDS011;6540;50.858;7.232;2023-06-14T08:57:54;0.50;;;0.50;;
12950;SDS011;6540;50.858;7.232;2023-06-14T09:00:22;0.67;;;0.67;;
12950;SDS011;6540;50.858;7.232;2023-06-14T09:02:49;0.73;;;0.73;;
12950;SDS011;6540;50.858;7.232;2023-06-14T09:05:20;0.67;;;0.67;;
12950;SDS011;6540;50.858;7.232;2023-06-14T09:07:48;0.77;;;0.77;;
12950;SDS011;6540;50.858;7.232;2023-06-14T09:10:15;0.70;;;0.70;;
12950;SDS011;6540;50.858;7.232;2023-06-14T09:12:41;0.80;;;0.80;;
12950;SDS011;6540;50.858;7.232;2023-06-14T09:15:07;0.67;;;0.67;;
12950;SDS011;6540;50.858;7.232;2023-06-14T09:17:37;0.70;;;0.70;;
12950;SDS011;6540;50.858;7.232;2023-06-14T09:20:03;0.40;;;0.40;;
12950;SDS011;6540;50.858;7.232;2023-06-14T09:22:36;0.77;;;0.77;;
12950;SDS011;6540;50.858;7.232;2023-06-14T09:25:02;0.57;;;0.53;;
12950;SDS011;6540;50.858;7.232;2023-06-14T09:27:28;0.90;;;0.60;;
12950;SDS011;6540;50.858;7.232;2023-06-14T09:29:54;0.63;;;0.63;;
12950;SDS011;6540;50.858;7.232;2023-06-14T09:32:20;0.67;;;0.67;;
12950;SDS011;6540;50.858;7.232;2023-06-14T09:34:46;0.60;;;0.60;;
12950;SDS011;6540;50.858;7.232;2023-06-14T09:37:12;0.77;;;0.77;;
12950;SDS011;6540;50.858;7.232;2023-06-14T09:39:50;0.50;;;0.50;;
12950;SDS011;6540;50.858;7.232;2023-06-14T09:42:16;0.77;;;0.77;;
12950;SDS011;6540;50.858;7.232;2023-06-14T09:44:46;0.63;;;0.63;;
12950;SDS011;6540;50.858;7.232;2023-06-14T09:47:14;1.00;;;0.93;;
12950;SDS011;6540;50.858;7.232;2023-06-14T09:49:40;0.77;;;0.77;;
12950;SDS011;6540;50.858;7.232;2023-06-14T09:52:06;0.40;;;0.40;;
12950;SDS011;6540;50.858;7.232;2023-06-14T09:54:42;0.73;;;0.73;;
12950;SDS011;6540;50.858;7.232;2023-06-14T09:57:12;0.73;;;0.73;;
12950;SDS011;6540;50.858;7.232;2023-06-14T09:59:43;0.73;;;0.73;;
12950;SDS011;6540;50.858;7.232;2023-06-14T10:02:11;0.73;;;0.73;;
12950;SDS011;6540;50.858;7.232;2023-06-14T10:05:00;1.00;;;0.83;;
12950;SDS011;6540;50.858;7.232;2023-06-14T10:07:32;0.57;;;0.57;;
12950;SDS011;6540;50.858;7.232;2023-06-14T10:10:18;0.77;;;0.77;;
12950;SDS011;6540;50.858;7.232;2023-06-14T10:12:44;0.60;;;0.60;;
12950;SDS011;6540;50.858;7.232;2023-06-14T10:15:11;0.80;;;0.70;;
12950;SDS011;6540;50.858;7.232;2023-06-14T10:17:47;0.50;;;0.50;;
12950;SDS011;6540;50.858;7.232;2023-06-14T10:23:29;0.53;;;0.53;;
12950;SDS011;6540;50.858;7.232;2023-06-14T10:25:58;0.87;;;0.87;;
12950;SDS011;6540;50.858;7.232;2023-06-14T10:28:25;0.60;;;0.60;;
12950;SDS011;6540;50.858;7.232;2023-06-14T10:33:29;1.23;;;0.60;;
12950;SDS011;6540;50.858;7.232;2023-06-14T10:36:11;0.40;;;0.40;;
12950;SDS011;6540;50.858;7.232;2023-06-14T10:39:03;0.80;;;0.80;;
12950;SDS011;6540;50.858;7.232;2023-06-14T10:41:40;0.63;;;0.63;;
12950;SDS011;6540;50.858;7.232;2023-06-14T10:46:37;0.40;;;0.40;;
12950;SDS011;6540;50.858;7.232;2023-06-14T10:49:03;0.57;;;0.57;;
12950;SDS011;6540;50.858;7.232;2023-06-14T10:51:29;0.50;;;0.50;;
12950;SDS011;6540;50.858;7.232;2023-06-14T10:54:11;1.30;;;1.20;;
12950;SDS011;6540;50.858;7.232;2023-06-14T10:56:37;0.80;;;0.80;;
12950;SDS011;6540;50.858;7.232;2023-06-14T10:59:02;0.63;;;0.63;;
12950;SDS011;6540;50.858;7.232;2023-06-14T11:01:38;0.80;;;0.80;;
12950;SDS011;6540;50.858;7.232;2023-06-14T11:07:17;0.60;;;0.60;;
12950;SDS011;6540;50.858;7.232;2023-06-14T11:09:52;0.80;;;0.80;;
12950;SDS011;6540;50.858;7.232;2023-06-14T11:12:48;1.20;;;0.87;;
12950;SDS011;6540;50.858;7.232;2023-06-14T11:15:14;0.50;;;0.50;;
12950;SDS011;6540;50.858;7.232;2023-06-14T11:17:39;0.60;;;0.60;;
12950;SDS011;6540;50.858;7.232;2023-06-14T11:20:16;0.80;;;0.80;;
12950;SDS011;6540;50.858;7.232;2023-06-14T11:22:42;0.40;;;0.40;;
12950;SDS011;6540;50.858;7.232;2023-06-14T11:25:13;1.03;;;0.60;;
12950;SDS011;6540;50.858;7.232;2023-06-14T11:27:41;0.67;;;0.67;;
12950;SDS011;6540;50.858;7.232;2023-06-14T11:30:07;0.70;;;0.70;;
12950;SDS011;6540;50.858;7.232;2023-06-14T11:32:34;0.30;;;0.30;;
12950;SDS011;6540;50.858;7.232;2023-06-14T11:35:00;0.50;;;0.50;;
12950;SDS011;6540;50.858;7.232;2023-06-14T11:37:26;0.37;;;0.37;;
12950;SDS011;6540;50.858;7.232;2023-06-14T11:39:55;0.60;;;0.60;;
12950;SDS011;6540;50.858;7.232;2023-06-14T11:42:22;0.97;;;0.50;;
12950;SDS011;6540;50.858;7.232;2023-06-14T11:44:47;0.20;;;0.20;;
12950;SDS011;6540;50.858;7.232;2023-06-14T11:47:14;0.60;;;0.50;;
12950;SDS011;6540;50.858;7.232;2023-06-14T11:49:39;0.60;;;0.60;;
12950;SDS011;6540;50.858;7.232;2023-06-14T11:52:04;0.60;;;0.30;;
12950;SDS011;6540;50.858;7.232;2023-06-14T11:54:31;0.83;;;0.53;;
12950;SDS011;6540;50.858;7.232;2023-06-14T11:56:57;0.50;;;0.50;;
12950;SDS011;6540;50.858;7.232;2023-06-14T11:59:23;0.60;;;0.60;;
12950;SDS011;6540;50.858;7.232;2023-06-14T12:01:49;0.70;;;0.70;;
12950;SDS011;6540;50.858;7.232;2023-06-14T12:04:22;0.63;;;0.63;;
12950;SDS011;6540;50.858;7.232;2023-06-14T12:06:50;0.57;;;0.57;;
12950;SDS011;6540;50.858;7.232;2023-06-14T12:09:18;0.40;;;0.40;;
12950;SDS011;6540;50.858;7.232;2023-06-14T12:11:44;0.47;;;0.47;;
12950;SDS011;6540;50.858;7.232;2023-06-14T12:14:10;0.37;;;0.37;;
12950;SDS011;6540;50.858;7.232;2023-06-14T12:16:37;0.63;;;0.63;;
12950;SDS011;6540;50.858;7.232;2023-06-14T12:19:25;0.43;;;0.43;;
12950;SDS011;6540;50.858;7.232;2023-06-14T12:21:51;0.53;;;0.37;;
12950;SDS011;6540;50.858;7.232;2023-06-14T12:24:17;0.57;;;0.57;;
12950;SDS011;6540;50.858;7.232;2023-06-14T12:26:42;0.50;;;0.50;;
12950;SDS011;6540;50.858;7.232;2023-06-14T12:29:08;0.50;;;0.50;;
12950;SDS011;6540;50.858;7.232;2023-06-14T12:31:33;1.23;;;0.70;;
12950;SDS011;6540;50.858;7.232;2023-06-14T12:33:59;0.67;;;0.67;;
12950;SDS011;6540;50.858;7.232;2023-06-14T12:36:25;1.00;;;1.00;;
12950;SDS011;6540;50.858;7.232;2023-06-14T12:38:51;0.87;;;0.67;;
12950;SDS011;6540;50.858;7.232;2023-06-14T12:41:18;0.60;;;0.60;;
12950;SDS011;6540;50.858;7.232;2023-06-14T12:43:46;0.70;;;0.70;;
12950;SDS011;6540;50.858;7.232;2023-06-14T12:46:11;0.70;;;0.70;;
12950;SDS011;6540;50.858;7.232;2023-06-14T12:48:37;0.70;;;0.70;;
12950;SDS011;6540;50.858;7.232;2023-06-14T12:51:02;1.33;;;1.23;;
12950;SDS011;6540;50.858;7.232;2023-06-14T12:53:27;0.80;;;0.80;;
12950;SDS011;6540;50.858;7.232;2023-06-14T12:55:53;2.03;;;0.80;;
12950;SDS011;6540;50.858;7.232;2023-06-14T12:58:18;0.80;;;0.80;;
12950;SDS011;6540;50.858;7.232;2023-06-14T13:00:44;1.73;;;1.00;;
12950;SDS011;6540;50.858;7.232;2023-06-14T13:03:10;1.10;;;1.10;;
12950;SDS011;6540;50.858;7.232;2023-06-14T13:05:36;0.47;;;0.40;;
12950;SDS011;6540;50.858;7.232;2023-06-14T13:08:02;0.63;;;0.63;;
12950;SDS011;6540;50.858;7.232;2023-06-14T13:10:27;1.10;;;1.10;;
12950;SDS011;6540;50.858;7.232;2023-06-14T13:12:53;0.80;;;0.60;;
12950;SDS011;6540;50.858;7.232;2023-06-14T13:15:18;0.80;;;0.70;;
12950;SDS011;6540;50.858;7.232;2023-06-14T13:17:44;1.33;;;1.00;;
12950;SDS011;6540;50.858;7.232;2023-06-14T13:20:13;1.23;;;1.20;;
12950;SDS011;6540;50.858;7.232;2023-06-14T13:22:40;0.80;;;0.80;;
12950;SDS011;6540;50.858;7.232;2023-06-14T13:25:06;1.30;;;1.20;;
12950;SDS011;6540;50.858;7.232;2023-06-14T13:27:31;0.70;;;0.70;;
12950;SDS011;6540;50.858;7.232;2023-06-14T13:29:57;1.00;;;1.00;;
12950;SDS011;6540;50.858;7.232;2023-06-14T13:32:22;0.80;;;0.80;;
12950;SDS011;6540;50.858;7.232;2023-06-14T13:34:48;1.00;;;1.00;;
12950;SDS011;6540;50.858;7.232;2023-06-14T13:37:14;0.87;;;0.87;;
12950;SDS011;6540;50.858;7.232;2023-06-14T13:39:40;0.40;;;0.40;;
12950;SDS011;6540;50.858;7.232;2023-06-14T13:42:05;1.03;;;1.00;;
12950;SDS011;6540;50.858;7.232;2023-06-14T13:44:31;0.90;;;0.90;;
12950;SDS011;6540;50.858;7.232;2023-06-14T13:46:56;1.13;;;1.03;;
12950;SDS011;6540;50.858;7.232;2023-06-14T13:49:22;0.70;;;0.70;;
12950;SDS011;6540;50.858;7.232;2023-06-14T13:51:47;1.40;;;1.27;;
12950;SDS011;6540;50.858;7.232;2023-06-14T13:54:13;0.50;;;0.50;;
12950;SDS011;6540;50.858;7.232;2023-06-14T13:56:40;0.90;;;0.90;;
12950;SDS011;6540;50.858;7.232;2023-06-14T13:59:05;0.77;;;0.77;;
12950;SDS011;6540;50.858;7.232;2023-06-14T14:01:30;0.67;;;0.67;;
12950;SDS011;6540;50.858;7.232;2023-06-14T14:03:56;1.00;;;1.00;;
12950;SDS011;6540;50.858;7.232;2023-06-14T14:06:21;0.90;;;0.90;;
12950;SDS011;6540;50.858;7.232;2023-06-14T14:08:47;1.07;;;1.07;;
12950;SDS011;6540;50.858;7.232;2023-06-14T14:11:12;1.00;;;1.00;;
12950;SDS011;6540;50.858;7.232;2023-06-14T14:13:38;0.93;;;0.80;;
12950;SDS011;6540;50.858;7.232;2023-06-14T14:16:05;0.77;;;0.77;;
12950;SDS011;6540;50.858;7.232;2023-06-14T14:18:30;0.70;;;0.70;;
12950;SDS011;6540;50.858;7.232;2023-06-14T14:20:57;0.70;;;0.70;;
12950;SDS011;6540;50.858;7.232;2023-06-14T14:23:23;1.10;;;1.10;;
12950;SDS011;6540;50.858;7.232;2023-06-14T14:25:49;0.60;;;0.60;;
12950;SDS011;6540;50.858;7.232;2023-06-14T14:28:14;1.10;;;1.03;;
12950;SDS011;6540;50.858;7.232;2023-06-14T14:30:41;1.17;;;1.10;;
12950;SDS011;6540;50.858;7.232;2023-06-14T14:33:07;1.07;;;1.03;;
12950;SDS011;6540;50.858;7.232;2023-06-14T14:35:33;1.00;;;1.00;;
12950;SDS011;6540;50.858;7.232;2023-06-14T14:37:58;2.00;;;1.90;;
12950;SDS011;6540;50.858;7.232;2023-06-14T14:40:24;1.07;;;1.07;;
12950;SDS011;6540;50.858;7.232;2023-06-14T14:42:49;0.77;;;0.77;;
12950;SDS011;6540;50.858;7.232;2023-06-14T14:45:15;0.80;;;0.80;;
12950;SDS011;6540;50.858;7.232;2023-06-14T14:47:40;0.60;;;0.60;;
12950;SDS011;6540;50.858;7.232;2023-06-14T14:50:06;0.93;;;0.90;;
12950;SDS011;6540;50.858;7.232;2023-06-14T14:52:34;0.80;;;0.80;;
12950;SDS011;6540;50.858;7.232;2023-06-14T14:54:59;1.30;;;1.20;;
12950;SDS011;6540;50.858;7.232;2023-06-14T14:57:26;0.63;;;0.63;;
12950;SDS011;6540;50.858;7.232;2023-06-14T14:59:51;1.07;;;0.80;;
12950;SDS011;6540;50.858;7.232;2023-06-14T15:02:16;0.93;;;0.93;;
12950;SDS011;6540;50.858;7.232;2023-06-14T15:04:42;1.00;;;1.00;;
12950;SDS011;6540;50.858;7.232;2023-06-14T15:07:07;0.80;;;0.80;;
12950;SDS011;6540;50.858;7.232;2023-06-14T15:09:33;1.13;;;1.10;;
12950;SDS011;6540;50.858;7.232;2023-06-14T15:11:58;1.17;;;1.00;;